sensor_id;sensor_type;location;lat;lon;timestamp;temperature;humidity
75495;DHT22;64072;51.466;7.260;2022-10-17T00:01:01;24.30;48.20
75495;DHT22;64072;51.466;7.260;2022-10-17T00:03:27;24.30;48.10
75495;DHT22;64072;51.466;7.260;2022-10-17T00:05:53;24.30;48.10
75495;DHT22;64072;51.466;7.260;2022-10-17T00:08:18;24.30;48.10
75495;DHT22;64072;51.466;7.260;2022-10-17T00:10:45;24.30;48.20
75495;DHT22;64072;51.466;7.260;2022-10-17T00:13:19;24.30;48.10
75495;DHT22;64072;51.466;7.260;2022-10-17T00:15:44;24.30;48.10
75495;DHT22;64072;51.466;7.260;2022-10-17T00:18:10;24.30;48.10
75495;DHT22;64072;51.466;7.260;2022-10-17T00:20:35;24.30;48.20
75495;DHT22;64072;51.466;7.260;2022-10-17T00:23:01;24.30;48.20
75495;DHT22;64072;51.466;7.260;2022-10-17T00:25:26;24.30;48.20
75495;DHT22;64072;51.466;7.260;2022-10-17T00:27:52;24.30;48.20
75495;DHT22;64072;51.466;7.260;2022-10-17T00:30:17;24.30;48.20
75495;DHT22;64072;51.466;7.260;2022-10-17T00:32:43;24.30;48.30
75495;DHT22;64072;51.466;7.260;2022-10-17T00:35:09;24.30;48.30
75495;DHT22;64072;51.466;7.260;2022-10-17T00:37:35;24.30;48.30
75495;DHT22;64072;51.466;7.260;2022-10-17T00:40:00;24.30;48.30
75495;DHT22;64072;51.466;7.260;2022-10-17T00:42:26;24.30;48.30
75495;DHT22;64072;51.466;7.260;2022-10-17T00:45:27;24.20;48.30
75495;DHT22;64072;51.466;7.260;2022-10-17T00:48:02;24.30;48.30
75495;DHT22;64072;51.466;7.260;2022-10-17T00:50:28;24.30;48.30
75495;DHT22;64072;51.466;7.260;2022-10-17T00:52:55;24.30;48.30
75495;DHT22;64072;51.466;7.260;2022-10-17T00:55:27;24.30;48.30
75495;DHT22;64072;51.466;7.260;2022-10-17T00:57:56;24.30;48.20
75495;DHT22;64072;51.466;7.260;2022-10-17T01:00:23;24.30;48.20
75495;DHT22;64072;51.466;7.260;2022-10-17T01:02:48;24.30;48.20
75495;DHT22;64072;51.466;7.260;2022-10-17T01:05:15;24.40;48.20
75495;DHT22;64072;51.466;7.260;2022-10-17T01:07:41;24.40;48.10
75495;DHT22;64072;51.466;7.260;2022-10-17T01:10:08;24.40;48.10
75495;DHT22;64072;51.466;7.260;2022-10-17T01:15:36;24.40;48.10
75495;DHT22;64072;51.466;7.260;2022-10-17T01:34:44;24.40;48.10
75495;DHT22;64072;51.466;7.260;2022-10-17T01:37:27;24.40;48.20
75495;DHT22;64072;51.466;7.260;2022-10-17T01:40:08;24.40;48.20
75495;DHT22;64072;51.466;7.260;2022-10-17T01:45:39;24.40;48.10
75495;DHT22;64072;51.466;7.260;2022-10-17T01:48:12;24.40;48.10
75495;DHT22;64072;51.466;7.260;2022-10-17T01:50:47;24.30;48.20
75495;DHT22;64072;51.466;7.260;2022-10-17T01:53:18;24.40;48.20
75495;DHT22;64072;51.466;7.260;2022-10-17T01:55:47;24.40;48.20
75495;DHT22;64072;51.466;7.260;2022-10-17T01:58:23;24.40;48.20
75495;DHT22;64072;51.466;7.260;2022-10-17T02:00:51;24.40;48.20
75495;DHT22;64072;51.466;7.260;2022-10-17T02:03:19;24.30;48.20
75495;DHT22;64072;51.466;7.260;2022-10-17T02:05:45;24.40;48.20
75495;DHT22;64072;51.466;7.260;2022-10-17T02:08:11;24.40;48.20
75495;DHT22;64072;51.466;7.260;2022-10-17T02:13:34;24.40;48.20
75495;DHT22;64072;51.466;7.260;2022-10-17T02:27:14;24.40;48.20
75495;DHT22;64072;51.466;7.260;2022-10-17T02:29:52;24.30;48.30
75495;DHT22;64072;51.466;7.260;2022-10-17T02:32:33;24.30;48.30
75495;DHT22;64072;51.466;7.260;2022-10-17T02:35:01;24.30;48.30
75495;DHT22;64072;51.466;7.260;2022-10-17T02:37:28;24.30;48.40
75495;DHT22;64072;51.466;7.260;2022-10-17T02:39:57;24.30;48.40
75495;DHT22;64072;51.466;7.260;2022-10-17T02:42:24;24.30;48.40
75495;DHT22;64072;51.466;7.260;2022-10-17T02:44:51;24.30;48.40
75495;DHT22;64072;51.466;7.260;2022-10-17T02:47:24;24.30;48.50
75495;DHT22;64072;51.466;7.260;2022-10-17T02:49:54;24.30;48.50
75495;DHT22;64072;51.466;7.260;2022-10-17T02:55:27;24.30;48.50
75495;DHT22;64072;51.466;7.260;2022-10-17T02:57:58;24.20;48.60
75495;DHT22;64072;51.466;7.260;2022-10-17T03:00:25;24.20;48.60
75495;DHT22;64072;51.466;7.260;2022-10-17T03:02:53;24.30;48.50
75495;DHT22;64072;51.466;7.260;2022-10-17T03:05:22;24.20;48.50
75495;DHT22;64072;51.466;7.260;2022-10-17T03:07:48;24.30;48.50
75495;DHT22;64072;51.466;7.260;2022-10-17T03:10:14;24.20;48.50
75495;DHT22;64072;51.466;7.260;2022-10-17T03:12:39;24.30;48.50
75495;DHT22;64072;51.466;7.260;2022-10-17T03:15:06;24.30;48.40
75495;DHT22;64072;51.466;7.260;2022-10-17T03:17:32;24.30;48.40
75495;DHT22;64072;51.466;7.260;2022-10-17T03:19:58;24.30;48.30
75495;DHT22;64072;51.466;7.260;2022-10-17T03:22:23;24.40;48.30
75495;DHT22;64072;51.466;7.260;2022-10-17T03:24:49;24.40;48.30
75495;DHT22;64072;51.466;7.260;2022-10-17T03:27:15;24.40;48.20
75495;DHT22;64072;51.466;7.260;2022-10-17T03:29:40;24.40;48.20
75495;DHT22;64072;51.466;7.260;2022-10-17T03:32:06;24.40;48.20
75495;DHT22;64072;51.466;7.260;2022-10-17T03:34:34;24.40;48.20
75495;DHT22;64072;51.466;7.260;2022-10-17T03:37:00;24.40;48.20
75495;DHT22;64072;51.466;7.260;2022-10-17T03:39:25;24.40;48.10
75495;DHT22;64072;51.466;7.260;2022-10-17T03:41:51;24.40;48.20
75495;DHT22;64072;51.466;7.260;2022-10-17T03:44:16;24.40;48.10
75495;DHT22;64072;51.466;7.260;2022-10-17T03:46:42;24.40;48.10
75495;DHT22;64072;51.466;7.260;2022-10-17T03:49:08;24.40;48.20
75495;DHT22;64072;51.466;7.260;2022-10-17T03:51:35;24.40;48.20
75495;DHT22;64072;51.466;7.260;2022-10-17T03:54:00;24.50;48.20
75495;DHT22;64072;51.466;7.260;2022-10-17T03:56:26;24.40;48.20
75495;DHT22;64072;51.466;7.260;2022-10-17T03:58:53;24.40;48.20
75495;DHT22;64072;51.466;7.260;2022-10-17T04:01:19;24.40;48.20
75495;DHT22;64072;51.466;7.260;2022-10-17T04:03:51;24.40;48.20
75495;DHT22;64072;51.466;7.260;2022-10-17T04:06:18;24.40;48.20
75495;DHT22;64072;51.466;7.260;2022-10-17T04:08:43;24.40;48.20
75495;DHT22;64072;51.466;7.260;2022-10-17T04:11:14;24.40;48.20
75495;DHT22;64072;51.466;7.260;2022-10-17T04:13:40;24.40;48.30
75495;DHT22;64072;51.466;7.260;2022-10-17T04:16:12;24.40;48.20
75495;DHT22;64072;51.466;7.260;2022-10-17T04:18:38;24.40;48.30
75495;DHT22;64072;51.466;7.260;2022-10-17T04:21:04;24.40;48.30
75495;DHT22;64072;51.466;7.260;2022-10-17T04:23:30;24.40;48.30
75495;DHT22;64072;51.466;7.260;2022-10-17T04:25:57;24.40;48.30
75495;DHT22;64072;51.466;7.260;2022-10-17T04:28:24;24.40;48.30
75495;DHT22;64072;51.466;7.260;2022-10-17T04:31:03;24.40;48.30
75495;DHT22;64072;51.466;7.260;2022-10-17T04:33:30;24.40;48.30
75495;DHT22;64072;51.466;7.260;2022-10-17T04:36:01;24.40;48.30
75495;DHT22;64072;51.466;7.260;2022-10-17T04:38:28;24.40;48.40
75495;DHT22;64072;51.466;7.260;2022-10-17T04:40:55;24.40;48.40
75495;DHT22;64072;51.466;7.260;2022-10-17T04:43:21;24.40;48.40
75495;DHT22;64072;51.466;7.260;2022-10-17T04:45:46;24.30;48.50
75495;DHT22;64072;51.466;7.260;2022-10-17T04:48:12;24.30;48.50
75495;DHT22;64072;51.466;7.260;2022-10-17T04:50:37;24.30;48.60
75495;DHT22;64072;51.466;7.260;2022-10-17T04:53:03;24.30;48.60
75495;DHT22;64072;51.466;7.260;2022-10-17T04:55:28;24.30;48.60
75495;DHT22;64072;51.466;7.260;2022-10-17T04:57:54;24.30;48.60
75495;DHT22;64072;51.466;7.260;2022-10-17T05:00:20;24.30;48.60
75495;DHT22;64072;51.466;7.260;2022-10-17T05:02:45;24.30;48.60
75495;DHT22;64072;51.466;7.260;2022-10-17T05:05:11;24.30;48.60
75495;DHT22;64072;51.466;7.260;2022-10-17T05:07:39;24.30;48.60
75495;DHT22;64072;51.466;7.260;2022-10-17T05:10:05;24.30;48.60
75495;DHT22;64072;51.466;7.260;2022-10-17T05:12:31;24.30;48.60
75495;DHT22;64072;51.466;7.260;2022-10-17T05:14:56;24.40;48.70
75495;DHT22;64072;51.466;7.260;2022-10-17T05:17:22;24.40;48.90
75495;DHT22;64072;51.466;7.260;2022-10-17T05:19:48;24.40;48.90
75495;DHT22;64072;51.466;7.260;2022-10-17T05:22:13;24.40;49.10
75495;DHT22;64072;51.466;7.260;2022-10-17T05:24:39;24.50;49.20
75495;DHT22;64072;51.466;7.260;2022-10-17T05:27:04;24.50;49.20
75495;DHT22;64072;51.466;7.260;2022-10-17T05:29:30;24.50;49.30
75495;DHT22;64072;51.466;7.260;2022-10-17T05:31:55;24.50;49.50
75495;DHT22;64072;51.466;7.260;2022-10-17T05:34:22;24.50;49.50
75495;DHT22;64072;51.466;7.260;2022-10-17T05:36:47;24.50;49.60
75495;DHT22;64072;51.466;7.260;2022-10-17T05:39:13;24.50;49.70
75495;DHT22;64072;51.466;7.260;2022-10-17T05:41:39;24.50;49.80
75495;DHT22;64072;51.466;7.260;2022-10-17T05:44:05;24.50;49.80
75495;DHT22;64072;51.466;7.260;2022-10-17T05:46:30;24.50;49.90
75495;DHT22;64072;51.466;7.260;2022-10-17T05:48:56;24.50;50.00
75495;DHT22;64072;51.466;7.260;2022-10-17T05:51:21;24.50;50.00
75495;DHT22;64072;51.466;7.260;2022-10-17T05:53:47;24.50;50.10
75495;DHT22;64072;51.466;7.260;2022-10-17T05:56:12;24.50;50.10
75495;DHT22;64072;51.466;7.260;2022-10-17T05:58:43;24.50;50.10
75495;DHT22;64072;51.466;7.260;2022-10-17T06:01:11;24.50;50.20
75495;DHT22;64072;51.466;7.260;2022-10-17T06:03:36;24.50;50.20
75495;DHT22;64072;51.466;7.260;2022-10-17T06:06:04;24.50;50.20
75495;DHT22;64072;51.466;7.260;2022-10-17T06:08:30;24.60;50.30
75495;DHT22;64072;51.466;7.260;2022-10-17T06:10:55;24.50;50.30
75495;DHT22;64072;51.466;7.260;2022-10-17T06:13:21;24.50;50.30
75495;DHT22;64072;51.466;7.260;2022-10-17T06:15:46;24.50;50.40
75495;DHT22;64072;51.466;7.260;2022-10-17T06:18:12;24.60;50.40
75495;DHT22;64072;51.466;7.260;2022-10-17T06:20:37;24.60;50.30
75495;DHT22;64072;51.466;7.260;2022-10-17T06:23:04;24.70;50.10
75495;DHT22;64072;51.466;7.260;2022-10-17T06:25:31;25.00;49.70
75495;DHT22;64072;51.466;7.260;2022-10-17T06:27:56;25.10;49.50
75495;DHT22;64072;51.466;7.260;2022-10-17T06:30:22;25.20;49.30
75495;DHT22;64072;51.466;7.260;2022-10-17T06:32:48;25.50;48.80
75495;DHT22;64072;51.466;7.260;2022-10-17T06:35:13;25.40;48.90
75495;DHT22;64072;51.466;7.260;2022-10-17T06:37:39;25.30;49.20
75495;DHT22;64072;51.466;7.260;2022-10-17T06:40:05;25.10;49.50
75495;DHT22;64072;51.466;7.260;2022-10-17T06:42:33;25.00;49.70
75495;DHT22;64072;51.466;7.260;2022-10-17T06:44:59;25.00;49.80
75495;DHT22;64072;51.466;7.260;2022-10-17T06:47:24;24.90;50.00
75495;DHT22;64072;51.466;7.260;2022-10-17T06:49:50;24.90;50.10
75495;DHT22;64072;51.466;7.260;2022-10-17T06:52:15;24.90;50.20
75495;DHT22;64072;51.466;7.260;2022-10-17T06:54:42;24.90;50.30
75495;DHT22;64072;51.466;7.260;2022-10-17T06:57:08;24.90;50.40
75495;DHT22;64072;51.466;7.260;2022-10-17T06:59:33;24.90;50.40
75495;DHT22;64072;51.466;7.260;2022-10-17T07:02:00;24.80;50.40
75495;DHT22;64072;51.466;7.260;2022-10-17T07:04:26;24.80;50.50
75495;DHT22;64072;51.466;7.260;2022-10-17T07:06:52;24.80;50.40
75495;DHT22;64072;51.466;7.260;2022-10-17T07:09:17;24.80;50.40
75495;DHT22;64072;51.466;7.260;2022-10-17T07:11:43;24.80;50.50
75495;DHT22;64072;51.466;7.260;2022-10-17T07:14:09;24.80;50.40
75495;DHT22;64072;51.466;7.260;2022-10-17T07:16:35;24.90;50.40
75495;DHT22;64072;51.466;7.260;2022-10-17T07:19:01;24.80;50.40
75495;DHT22;64072;51.466;7.260;2022-10-17T07:21:26;24.90;50.40
75495;DHT22;64072;51.466;7.260;2022-10-17T07:23:52;24.90;50.40
75495;DHT22;64072;51.466;7.260;2022-10-17T07:26:18;24.90;50.40
75495;DHT22;64072;51.466;7.260;2022-10-17T07:28:45;24.90;50.50
75495;DHT22;64072;51.466;7.260;2022-10-17T07:31:14;24.90;50.40
75495;DHT22;64072;51.466;7.260;2022-10-17T07:33:40;24.90;50.40
75495;DHT22;64072;51.466;7.260;2022-10-17T07:36:06;24.90;50.40
75495;DHT22;64072;51.466;7.260;2022-10-17T07:38:33;24.90;50.40
75495;DHT22;64072;51.466;7.260;2022-10-17T07:41:01;24.90;50.40
75495;DHT22;64072;51.466;7.260;2022-10-17T07:43:27;24.90;50.40
75495;DHT22;64072;51.466;7.260;2022-10-17T07:45:53;24.90;50.40
75495;DHT22;64072;51.466;7.260;2022-10-17T07:48:20;25.00;50.40
75495;DHT22;64072;51.466;7.260;2022-10-17T07:50:46;25.00;50.40
75495;DHT22;64072;51.466;7.260;2022-10-17T07:53:12;25.00;50.40
75495;DHT22;64072;51.466;7.260;2022-10-17T07:55:38;25.00;50.40
75495;DHT22;64072;51.466;7.260;2022-10-17T07:58:04;25.00;50.40
75495;DHT22;64072;51.466;7.260;2022-10-17T08:00:29;25.00;50.40
75495;DHT22;64072;51.466;7.260;2022-10-17T08:02:55;25.00;50.40
75495;DHT22;64072;51.466;7.260;2022-10-17T08:05:20;25.00;50.40
75495;DHT22;64072;51.466;7.260;2022-10-17T08:07:46;25.00;50.40
75495;DHT22;64072;51.466;7.260;2022-10-17T08:10:13;25.00;50.40
75495;DHT22;64072;51.466;7.260;2022-10-17T08:12:39;25.00;50.40
75495;DHT22;64072;51.466;7.260;2022-10-17T08:15:06;25.00;50.30
75495;DHT22;64072;51.466;7.260;2022-10-17T08:17:34;25.10;50.40
75495;DHT22;64072;51.466;7.260;2022-10-17T08:20:00;25.10;50.40
75495;DHT22;64072;51.466;7.260;2022-10-17T08:22:25;25.10;50.40
75495;DHT22;64072;51.466;7.260;2022-10-17T08:24:51;25.10;50.40
75495;DHT22;64072;51.466;7.260;2022-10-17T08:27:17;25.10;50.40
75495;DHT22;64072;51.466;7.260;2022-10-17T08:29:48;25.10;50.30
75495;DHT22;64072;51.466;7.260;2022-10-17T08:32:18;25.10;50.40
75495;DHT22;64072;51.466;7.260;2022-10-17T08:34:43;25.10;50.30
75495;DHT22;64072;51.466;7.260;2022-10-17T08:37:09;25.10;50.30
75495;DHT22;64072;51.466;7.260;2022-10-17T08:39:34;25.10;50.30
75495;DHT22;64072;51.466;7.260;2022-10-17T08:44:54;25.20;50.30
75495;DHT22;64072;51.466;7.260;2022-10-17T08:47:27;25.20;50.30
75495;DHT22;64072;51.466;7.260;2022-10-17T08:49:56;25.20;50.30
75495;DHT22;64072;51.466;7.260;2022-10-17T08:55:00;25.20;50.40
75495;DHT22;64072;51.466;7.260;2022-10-17T08:57:25;25.20;50.30
75495;DHT22;64072;51.466;7.260;2022-10-17T08:59:53;25.20;50.40
75495;DHT22;64072;51.466;7.260;2022-10-17T09:02:42;25.20;50.40
75495;DHT22;64072;51.466;7.260;2022-10-17T09:08:56;25.20;50.40
75495;DHT22;64072;51.466;7.260;2022-10-17T09:11:52;25.30;50.40
75495;DHT22;64072;51.466;7.260;2022-10-17T09:20:07;25.30;50.50
75495;DHT22;64072;51.466;7.260;2022-10-17T09:22:48;25.30;50.50
75495;DHT22;64072;51.466;7.260;2022-10-17T09:25:17;25.20;50.50
75495;DHT22;64072;51.466;7.260;2022-10-17T09:27:48;25.30;50.50
75495;DHT22;64072;51.466;7.260;2022-10-17T09:32:45;25.30;50.50
75495;DHT22;64072;51.466;7.260;2022-10-17T09:35:15;25.30;50.50
75495;DHT22;64072;51.466;7.260;2022-10-17T09:37:42;25.30;50.50
75495;DHT22;64072;51.466;7.260;2022-10-17T09:40:18;25.30;50.60
75495;DHT22;64072;51.466;7.260;2022-10-17T09:42:46;25.30;50.60
75495;DHT22;64072;51.466;7.260;2022-10-17T09:45:21;25.40;50.70
75495;DHT22;64072;51.466;7.260;2022-10-17T09:48:14;25.30;50.70
75495;DHT22;64072;51.466;7.260;2022-10-17T09:50:41;25.40;50.70
75495;DHT22;64072;51.466;7.260;2022-10-17T09:53:34;25.40;50.60
75495;DHT22;64072;51.466;7.260;2022-10-17T09:56:12;25.30;50.70
75495;DHT22;64072;51.466;7.260;2022-10-17T09:58:41;25.40;50.70
75495;DHT22;64072;51.466;7.260;2022-10-17T10:01:28;25.40;50.70
75495;DHT22;64072;51.466;7.260;2022-10-17T10:06:37;25.40;50.70
75495;DHT22;64072;51.466;7.260;2022-10-17T10:09:04;25.40;50.70
75495;DHT22;64072;51.466;7.260;2022-10-17T10:16:51;25.40;50.80
75495;DHT22;64072;51.466;7.260;2022-10-17T10:19:35;25.40;50.70
75495;DHT22;64072;51.466;7.260;2022-10-17T10:22:15;25.40;50.70
75495;DHT22;64072;51.466;7.260;2022-10-17T10:24:41;25.40;50.80
75495;DHT22;64072;51.466;7.260;2022-10-17T10:27:12;25.40;50.80
75495;DHT22;64072;51.466;7.260;2022-10-17T10:29:51;25.40;50.80
75495;DHT22;64072;51.466;7.260;2022-10-17T10:32:22;25.40;50.80
75495;DHT22;64072;51.466;7.260;2022-10-17T10:34:57;25.40;50.80
75495;DHT22;64072;51.466;7.260;2022-10-17T10:37:37;25.40;50.70
75495;DHT22;64072;51.466;7.260;2022-10-17T10:40:15;25.40;50.70
75495;DHT22;64072;51.466;7.260;2022-10-17T10:42:46;25.40;50.70
75495;DHT22;64072;51.466;7.260;2022-10-17T10:47:52;25.40;50.70
75495;DHT22;64072;51.466;7.260;2022-10-17T10:50:23;25.40;50.70
75495;DHT22;64072;51.466;7.260;2022-10-17T10:55:28;25.40;50.70
75495;DHT22;64072;51.466;7.260;2022-10-17T10:57:59;25.40;50.70
75495;DHT22;64072;51.466;7.260;2022-10-17T11:00:27;25.40;50.60
75495;DHT22;64072;51.466;7.260;2022-10-17T11:03:09;25.40;50.60
75495;DHT22;64072;51.466;7.260;2022-10-17T11:05:43;25.50;50.60
75495;DHT22;64072;51.466;7.260;2022-10-17T11:11:09;25.40;50.60
75495;DHT22;64072;51.466;7.260;2022-10-17T11:13:57;25.40;50.60
75495;DHT22;64072;51.466;7.260;2022-10-17T11:16:45;25.40;50.70
75495;DHT22;64072;51.466;7.260;2022-10-17T11:19:24;25.40;50.70
75495;DHT22;64072;51.466;7.260;2022-10-17T11:22:26;25.40;50.70
75495;DHT22;64072;51.466;7.260;2022-10-17T11:25:05;25.40;50.80
75495;DHT22;64072;51.466;7.260;2022-10-17T11:27:37;25.40;50.70
75495;DHT22;64072;51.466;7.260;2022-10-17T11:30:03;25.40;50.70
75495;DHT22;64072;51.466;7.260;2022-10-17T11:35:32;25.40;50.80
75495;DHT22;64072;51.466;7.260;2022-10-17T11:40:44;25.40;50.80
75495;DHT22;64072;51.466;7.260;2022-10-17T11:45:49;25.40;50.80
75495;DHT22;64072;51.466;7.260;2022-10-17T11:51:12;25.40;50.90
75495;DHT22;64072;51.466;7.260;2022-10-17T11:54:03;25.40;50.90
75495;DHT22;64072;51.466;7.260;2022-10-17T11:56:43;25.40;50.90
75495;DHT22;64072;51.466;7.260;2022-10-17T11:59:42;25.40;51.00
75495;DHT22;64072;51.466;7.260;2022-10-17T12:02:37;25.50;51.00
75495;DHT22;64072;51.466;7.260;2022-10-17T12:05:18;25.50;51.00
75495;DHT22;64072;51.466;7.260;2022-10-17T12:11:06;25.50;51.00
75495;DHT22;64072;51.466;7.260;2022-10-17T12:18:45;25.50;51.00
75495;DHT22;64072;51.466;7.260;2022-10-17T12:21:11;25.50;51.00
75495;DHT22;64072;51.466;7.260;2022-10-17T12:23:36;25.50;51.00
75495;DHT22;64072;51.466;7.260;2022-10-17T12:26:08;25.50;51.10
75495;DHT22;64072;51.466;7.260;2022-10-17T12:33:37;25.50;51.10
75495;DHT22;64072;51.466;7.260;2022-10-17T12:38:42;25.50;51.10
75495;DHT22;64072;51.466;7.260;2022-10-17T12:41:09;25.50;51.20
75495;DHT22;64072;51.466;7.260;2022-10-17T12:43:36;25.50;51.20
75495;DHT22;64072;51.466;7.260;2022-10-17T12:46:07;25.50;51.20
75495;DHT22;64072;51.466;7.260;2022-10-17T12:51:11;25.50;51.30
75495;DHT22;64072;51.466;7.260;2022-10-17T12:54:28;25.50;51.30
75495;DHT22;64072;51.466;7.260;2022-10-17T12:57:08;25.50;51.40
75495;DHT22;64072;51.466;7.260;2022-10-17T12:59:28;25.50;51.40
75495;DHT22;64072;51.466;7.260;2022-10-17T13:01:58;25.50;51.50
75495;DHT22;64072;51.466;7.260;2022-10-17T13:04:26;25.50;51.50
75495;DHT22;64072;51.466;7.260;2022-10-17T13:06:57;25.50;51.60
75495;DHT22;64072;51.466;7.260;2022-10-17T13:11:52;25.50;51.70
75495;DHT22;64072;51.466;7.260;2022-10-17T13:14:21;25.50;51.70
75495;DHT22;64072;51.466;7.260;2022-10-17T13:16:54;25.50;51.80
75495;DHT22;64072;51.466;7.260;2022-10-17T13:19:22;25.50;51.80
75495;DHT22;64072;51.466;7.260;2022-10-17T13:21:59;25.50;51.90
75495;DHT22;64072;51.466;7.260;2022-10-17T13:24:35;25.50;51.90
75495;DHT22;64072;51.466;7.260;2022-10-17T13:27:02;25.50;52.00
75495;DHT22;64072;51.466;7.260;2022-10-17T13:29:29;25.50;52.00
75495;DHT22;64072;51.466;7.260;2022-10-17T13:32:01;25.50;52.00
75495;DHT22;64072;51.466;7.260;2022-10-17T13:34:29;25.50;52.10
75495;DHT22;64072;51.466;7.260;2022-10-17T13:37:04;25.50;52.10
75495;DHT22;64072;51.466;7.260;2022-10-17T13:39:37;25.50;52.10
75495;DHT22;64072;51.466;7.260;2022-10-17T13:42:03;25.50;52.20
75495;DHT22;64072;51.466;7.260;2022-10-17T13:44:32;25.50;52.20
75495;DHT22;64072;51.466;7.260;2022-10-17T13:46:59;25.50;52.20
75495;DHT22;64072;51.466;7.260;2022-10-17T13:49:38;25.50;52.20
75495;DHT22;64072;51.466;7.260;2022-10-17T13:52:06;25.50;52.30
75495;DHT22;64072;51.466;7.260;2022-10-17T13:54:40;25.50;52.30
75495;DHT22;64072;51.466;7.260;2022-10-17T13:57:22;25.50;52.40
75495;DHT22;64072;51.466;7.260;2022-10-17T13:59:51;25.50;52.40
75495;DHT22;64072;51.466;7.260;2022-10-17T14:02:21;25.50;52.50
75495;DHT22;64072;51.466;7.260;2022-10-17T14:04:57;25.50;52.50
75495;DHT22;64072;51.466;7.260;2022-10-17T14:10:03;25.50;52.60
75495;DHT22;64072;51.466;7.260;2022-10-17T14:12:32;25.50;52.70
75495;DHT22;64072;51.466;7.260;2022-10-17T14:14:58;25.50;52.70
75495;DHT22;64072;51.466;7.260;2022-10-17T14:17:27;25.50;52.70
75495;DHT22;64072;51.466;7.260;2022-10-17T14:20:02;25.50;52.80
75495;DHT22;64072;51.466;7.260;2022-10-17T14:22:29;25.50;52.90
75495;DHT22;64072;51.466;7.260;2022-10-17T14:24:57;25.50;53.00
75495;DHT22;64072;51.466;7.260;2022-10-17T14:27:35;25.50;52.90
75495;DHT22;64072;51.466;7.260;2022-10-17T14:32:57;25.40;53.10
75495;DHT22;64072;51.466;7.260;2022-10-17T14:35:24;25.40;53.20
75495;DHT22;64072;51.466;7.260;2022-10-17T14:37:51;25.40;53.20
75495;DHT22;64072;51.466;7.260;2022-10-17T14:40:23;25.40;53.20
75495;DHT22;64072;51.466;7.260;2022-10-17T14:42:54;25.40;53.30
75495;DHT22;64072;51.466;7.260;2022-10-17T14:45:26;25.40;53.30
75495;DHT22;64072;51.466;7.260;2022-10-17T14:47:55;25.40;53.30
75495;DHT22;64072;51.466;7.260;2022-10-17T14:50:29;25.40;53.30
75495;DHT22;64072;51.466;7.260;2022-10-17T14:55:29;25.40;53.40
75495;DHT22;64072;51.466;7.260;2022-10-17T14:57:55;25.30;53.50
75495;DHT22;64072;51.466;7.260;2022-10-17T15:00:21;25.40;53.40
75495;DHT22;64072;51.466;7.260;2022-10-17T15:02:49;25.40;53.50
75495;DHT22;64072;51.466;7.260;2022-10-17T15:05:15;25.40;53.50
75495;DHT22;64072;51.466;7.260;2022-10-17T15:07:41;25.40;53.50
75495;DHT22;64072;51.466;7.260;2022-10-17T15:10:27;25.40;53.50
75495;DHT22;64072;51.466;7.260;2022-10-17T15:12:55;25.40;53.60
75495;DHT22;64072;51.466;7.260;2022-10-17T15:15:20;25.40;53.60
75495;DHT22;64072;51.466;7.260;2022-10-17T15:17:46;25.40;53.60
75495;DHT22;64072;51.466;7.260;2022-10-17T15:20:14;25.40;53.60
75495;DHT22;64072;51.466;7.260;2022-10-17T15:22:40;25.40;53.60
75495;DHT22;64072;51.466;7.260;2022-10-17T15:25:06;25.40;53.60
75495;DHT22;64072;51.466;7.260;2022-10-17T15:27:32;25.40;53.60
75495;DHT22;64072;51.466;7.260;2022-10-17T15:29:57;25.30;53.70
75495;DHT22;64072;51.466;7.260;2022-10-17T15:32:23;25.40;53.70
75495;DHT22;64072;51.466;7.260;2022-10-17T15:34:48;25.40;53.70
75495;DHT22;64072;51.466;7.260;2022-10-17T15:37:22;25.30;53.70
75495;DHT22;64072;51.466;7.260;2022-10-17T15:39:50;25.30;53.80
75495;DHT22;64072;51.466;7.260;2022-10-17T15:42:19;25.30;53.80
75495;DHT22;64072;51.466;7.260;2022-10-17T15:44:45;25.30;53.80
75495;DHT22;64072;51.466;7.260;2022-10-17T15:47:25;25.30;53.80
75495;DHT22;64072;51.466;7.260;2022-10-17T15:49:51;25.30;54.00
75495;DHT22;64072;51.466;7.260;2022-10-17T15:52:17;25.30;54.00
75495;DHT22;64072;51.466;7.260;2022-10-17T15:54:43;25.30;54.00
75495;DHT22;64072;51.466;7.260;2022-10-17T15:57:19;25.30;54.10
75495;DHT22;64072;51.466;7.260;2022-10-17T15:59:45;25.30;54.10
75495;DHT22;64072;51.466;7.260;2022-10-17T16:02:13;25.30;54.20
75495;DHT22;64072;51.466;7.260;2022-10-17T16:04:39;25.30;54.10
75495;DHT22;64072;51.466;7.260;2022-10-17T16:07:05;25.30;54.30
75495;DHT22;64072;51.466;7.260;2022-10-17T16:09:32;25.30;54.30
75495;DHT22;64072;51.466;7.260;2022-10-17T16:12:00;25.30;54.20
75495;DHT22;64072;51.466;7.260;2022-10-17T16:14:26;25.20;53.90
75495;DHT22;64072;51.466;7.260;2022-10-17T16:16:51;25.20;53.90
75495;DHT22;64072;51.466;7.260;2022-10-17T16:19:17;25.20;53.90
75495;DHT22;64072;51.466;7.260;2022-10-17T16:21:42;25.20;53.80
75495;DHT22;64072;51.466;7.260;2022-10-17T16:24:10;25.20;53.80
75495;DHT22;64072;51.466;7.260;2022-10-17T16:26:37;25.20;53.80
75495;DHT22;64072;51.466;7.260;2022-10-17T16:29:02;25.20;53.80
75495;DHT22;64072;51.466;7.260;2022-10-17T16:31:37;25.20;53.80
75495;DHT22;64072;51.466;7.260;2022-10-17T16:34:04;25.20;53.70
75495;DHT22;64072;51.466;7.260;2022-10-17T16:36:31;25.20;53.70
75495;DHT22;64072;51.466;7.260;2022-10-17T16:38:57;25.20;53.60
75495;DHT22;64072;51.466;7.260;2022-10-17T16:41:31;25.20;53.60
75495;DHT22;64072;51.466;7.260;2022-10-17T16:43:59;25.10;53.60
75495;DHT22;64072;51.466;7.260;2022-10-17T16:46:26;25.10;53.60
75495;DHT22;64072;51.466;7.260;2022-10-17T16:48:52;25.10;53.60
75495;DHT22;64072;51.466;7.260;2022-10-17T16:51:18;25.10;53.60
75495;DHT22;64072;51.466;7.260;2022-10-17T16:53:45;25.10;53.60
75495;DHT22;64072;51.466;7.260;2022-10-17T16:56:13;25.10;53.50
75495;DHT22;64072;51.466;7.260;2022-10-17T16:58:40;25.10;53.50
75495;DHT22;64072;51.466;7.260;2022-10-17T17:01:14;25.10;53.50
75495;DHT22;64072;51.466;7.260;2022-10-17T17:03:41;25.10;53.50
75495;DHT22;64072;51.466;7.260;2022-10-17T17:06:11;25.10;53.50
75495;DHT22;64072;51.466;7.260;2022-10-17T17:08:37;25.10;53.50
75495;DHT22;64072;51.466;7.260;2022-10-17T17:11:06;25.10;53.50
75495;DHT22;64072;51.466;7.260;2022-10-17T17:13:33;25.10;53.40
75495;DHT22;64072;51.466;7.260;2022-10-17T17:16:10;25.10;53.40
75495;DHT22;64072;51.466;7.260;2022-10-17T17:18:36;25.10;53.40
75495;DHT22;64072;51.466;7.260;2022-10-17T17:21:04;25.10;53.40
75495;DHT22;64072;51.466;7.260;2022-10-17T17:23:33;25.10;53.30
75495;DHT22;64072;51.466;7.260;2022-10-17T17:26:04;25.00;53.40
75495;DHT22;64072;51.466;7.260;2022-10-17T17:28:30;25.00;53.30
75495;DHT22;64072;51.466;7.260;2022-10-17T17:30:56;25.10;53.30
75495;DHT22;64072;51.466;7.260;2022-10-17T17:33:23;25.00;53.30
75495;DHT22;64072;51.466;7.260;2022-10-17T17:35:56;25.00;53.30